sensor_id;sensor_type;location;lat;lon;timestamp;pressure;altitude;pressure_sealevel;temperature;humidity
8641;BME280;4358;42.100;25.222;2023-12-14T00:01:16;99381.03;;;3.34;100.00
8641;BME280;4358;42.100;25.222;2023-12-14T00:03:44;99382.44;;;3.41;100.00
8641;BME280;4358;42.100;25.222;2023-12-14T00:06:11;99385.97;;;3.40;100.00
8641;BME280;4358;42.100;25.222;2023-12-14T00:08:39;99384.72;;;3.49;100.00
8641;BME280;4358;42.100;25.222;2023-12-14T00:11:06;99389.66;;;3.36;100.00
8641;BME280;4358;42.100;25.222;2023-12-14T00:13:33;99400.03;;;3.39;100.00
8641;BME280;4358;42.100;25.222;2023-12-14T00:16:01;99390.72;;;3.51;100.00
8641;BME280;4358;42.100;25.222;2023-12-14T00:18:38;99389.47;;;3.60;100.00
8641;BME280;4358;42.100;25.222;2023-12-14T00:21:30;99386.84;;;3.60;100.00
8641;BME280;4358;42.100;25.222;2023-12-14T00:24:04;99376.47;;;3.57;100.00
8641;BME280;4358;42.100;25.222;2023-12-14T00:26:31;99387.47;;;3.65;100.00
8641;BME280;4358;42.100;25.222;2023-12-14T00:28:58;99384.41;;;3.74;100.00
8641;BME280;4358;42.100;25.222;2023-12-14T00:34:29;99408.66;;;3.41;100.00
8641;BME280;4358;42.100;25.222;2023-12-14T00:36:58;99405.13;;;3.42;100.00
8641;BME280;4358;42.100;25.222;2023-12-14T00:39:24;99386.13;;;3.37;100.00
8641;BME280;4358;42.100;25.222;2023-12-14T00:41:51;99383.97;;;3.46;100.00
8641;BME280;4358;42.100;25.222;2023-12-14T00:44:18;99377.81;;;3.47;100.00
8641;BME280;4358;42.100;25.222;2023-12-14T00:46:45;99383.16;;;3.45;100.00
8641;BME280;4358;42.100;25.222;2023-12-14T00:49:12;99396.34;;;3.44;100.00
8641;BME280;4358;42.100;25.222;2023-12-14T00:51:39;99389.97;;;3.49;100.00
8641;BME280;4358;42.100;25.222;2023-12-14T00:54:07;99399.31;;;3.55;100.00
8641;BME280;4358;42.100;25.222;2023-12-14T00:56:34;99390.81;;;3.50;100.00
8641;BME280;4358;42.100;25.222;2023-12-14T00:59:01;99388.59;;;3.40;100.00
8641;BME280;4358;42.100;25.222;2023-12-14T01:01:28;99389.09;;;3.49;100.00
8641;BME280;4358;42.100;25.222;2023-12-14T01:03:56;99385.69;;;3.47;100.00
8641;BME280;4358;42.100;25.222;2023-12-14T01:06:25;99382.69;;;3.35;100.00
8641;BME280;4358;42.100;25.222;2023-12-14T01:08:51;99375.63;;;3.37;100.00
8641;BME280;4358;42.100;25.222;2023-12-14T01:11:20;99369.94;;;3.47;100.00
8641;BME280;4358;42.100;25.222;2023-12-14T01:13:47;99384.84;;;3.46;100.00
8641;BME280;4358;42.100;25.222;2023-12-14T01:16:14;99374.44;;;3.45;100.00
8641;BME280;4358;42.100;25.222;2023-12-14T01:18:40;99355.63;;;3.54;100.00
8641;BME280;4358;42.100;25.222;2023-12-14T01:21:07;99370.22;;;3.59;100.00
8641;BME280;4358;42.100;25.222;2023-12-14T01:23:35;99362.31;;;3.61;100.00
8641;BME280;4358;42.100;25.222;2023-12-14T01:26:02;99361.97;;;3.67;100.00
8641;BME280;4358;42.100;25.222;2023-12-14T01:28:30;99349.81;;;3.66;100.00
8641;BME280;4358;42.100;25.222;2023-12-14T01:30:57;99342.41;;;3.74;100.00
8641;BME280;4358;42.100;25.222;2023-12-14T01:33:24;99342.97;;;3.80;100.00
8641;BME280;4358;42.100;25.222;2023-12-14T01:35:51;99349.13;;;3.79;100.00
8641;BME280;4358;42.100;25.222;2023-12-14T01:38:18;99344.56;;;3.66;100.00
8641;BME280;4358;42.100;25.222;2023-12-14T01:40:45;99331.03;;;3.37;100.00
8641;BME280;4358;42.100;25.222;2023-12-14T01:43:12;99341.19;;;3.45;100.00
8641;BME280;4358;42.100;25.222;2023-12-14T01:45:40;99325.94;;;3.34;100.00
8641;BME280;4358;42.100;25.222;2023-12-14T01:48:07;99323.53;;;3.49;100.00
8641;BME280;4358;42.100;25.222;2023-12-14T01:50:34;99333.22;;;3.47;100.00
8641;BME280;4358;42.100;25.222;2023-12-14T01:53:01;99327.06;;;3.48;100.00
8641;BME280;4358;42.100;25.222;2023-12-14T01:55:28;99331.81;;;3.39;100.00
8641;BME280;4358;42.100;25.222;2023-12-14T01:57:55;99326.47;;;3.41;100.00
8641;BME280;4358;42.100;25.222;2023-12-14T02:00:30;99332.81;;;3.37;100.00
8641;BME280;4358;42.100;25.222;2023-12-14T02:03:02;99342.09;;;3.25;100.00
8641;BME280;4358;42.100;25.222;2023-12-14T02:05:30;99353.53;;;3.24;100.00
8641;BME280;4358;42.100;25.222;2023-12-14T02:07:57;99332.81;;;3.18;100.00
8641;BME280;4358;42.100;25.222;2023-12-14T02:10:24;99340.81;;;3.15;100.00
8641;BME280;4358;42.100;25.222;2023-12-14T02:12:51;99333.22;;;3.09;100.00
8641;BME280;4358;42.100;25.222;2023-12-14T02:15:18;99322.88;;;3.06;100.00
8641;BME280;4358;42.100;25.222;2023-12-14T02:17:45;99321.19;;;3.05;100.00
8641;BME280;4358;42.100;25.222;2023-12-14T02:20:14;99327.06;;;3.10;100.00
8641;BME280;4358;42.100;25.222;2023-12-14T02:22:52;99325.16;;;3.14;100.00
8641;BME280;4358;42.100;25.222;2023-12-14T02:25:20;99323.19;;;3.19;100.00
8641;BME280;4358;42.100;25.222;2023-12-14T02:27:55;99330.59;;;3.09;100.00
8641;BME280;4358;42.100;25.222;2023-12-14T02:30:37;99334.06;;;3.10;100.00
8641;BME280;4358;42.100;25.222;2023-12-14T02:33:04;99342.03;;;3.08;100.00
8641;BME280;4358;42.100;25.222;2023-12-14T02:35:31;99329.69;;;3.10;100.00
8641;BME280;4358;42.100;25.222;2023-12-14T02:37:59;99322.44;;;3.15;100.00
8641;BME280;4358;42.100;25.222;2023-12-14T02:40:26;99319.44;;;3.24;100.00
8641;BME280;4358;42.100;25.222;2023-12-14T02:42:53;99328.84;;;3.28;100.00
8641;BME280;4358;42.100;25.222;2023-12-14T02:45:20;99334.09;;;3.28;100.00
8641;BME280;4358;42.100;25.222;2023-12-14T02:47:47;99332.72;;;3.20;100.00
8641;BME280;4358;42.100;25.222;2023-12-14T02:50:15;99351.38;;;3.14;100.00
8641;BME280;4358;42.100;25.222;2023-12-14T02:52:42;99344.91;;;3.02;100.00
8641;BME280;4358;42.100;25.222;2023-12-14T02:55:10;99326.47;;;2.85;100.00
8641;BME280;4358;42.100;25.222;2023-12-14T02:57:37;99324.56;;;2.88;100.00
8641;BME280;4358;42.100;25.222;2023-12-14T03:00:06;99319.91;;;2.95;100.00
8641;BME280;4358;42.100;25.222;2023-12-14T03:02:33;99322.94;;;3.05;100.00
8641;BME280;4358;42.100;25.222;2023-12-14T03:05:00;99320.00;;;3.12;100.00
8641;BME280;4358;42.100;25.222;2023-12-14T03:07:27;99324.53;;;3.09;100.00
8641;BME280;4358;42.100;25.222;2023-12-14T03:09:54;99320.00;;;3.12;100.00
8641;BME280;4358;42.100;25.222;2023-12-14T03:12:22;99324.72;;;3.04;100.00
8641;BME280;4358;42.100;25.222;2023-12-14T03:14:49;99337.28;;;3.16;100.00
8641;BME280;4358;42.100;25.222;2023-12-14T03:17:16;99331.16;;;3.16;100.00
8641;BME280;4358;42.100;25.222;2023-12-14T03:19:45;99325.72;;;3.20;100.00
8641;BME280;4358;42.100;25.222;2023-12-14T03:22:12;99336.94;;;3.24;100.00
8641;BME280;4358;42.100;25.222;2023-12-14T03:24:39;99345.56;;;3.26;100.00
8641;BME280;4358;42.100;25.222;2023-12-14T03:27:06;99343.66;;;3.29;100.00
8641;BME280;4358;42.100;25.222;2023-12-14T03:29:34;99335.81;;;3.29;100.00
8641;BME280;4358;42.100;25.222;2023-12-14T03:32:01;99344.78;;;3.05;100.00
8641;BME280;4358;42.100;25.222;2023-12-14T03:34:28;99351.06;;;3.01;100.00
8641;BME280;4358;42.100;25.222;2023-12-14T03:36:55;99334.06;;;2.91;100.00
8641;BME280;4358;42.100;25.222;2023-12-14T03:39:22;99344.13;;;3.00;100.00
8641;BME280;4358;42.100;25.222;2023-12-14T03:41:49;99337.31;;;2.96;100.00
8641;BME280;4358;42.100;25.222;2023-12-14T03:44:16;99338.03;;;2.99;100.00
8641;BME280;4358;42.100;25.222;2023-12-14T03:46:44;99341.06;;;2.90;100.00
8641;BME280;4358;42.100;25.222;2023-12-14T03:49:11;99327.13;;;2.90;100.00
8641;BME280;4358;42.100;25.222;2023-12-14T03:51:38;99351.13;;;2.99;100.00
8641;BME280;4358;42.100;25.222;2023-12-14T03:54:05;99345.66;;;2.85;100.00
8641;BME280;4358;42.100;25.222;2023-12-14T03:56:32;99343.06;;;2.85;100.00
8641;BME280;4358;42.100;25.222;2023-12-14T03:58:59;99330.53;;;2.92;100.00
8641;BME280;4358;42.100;25.222;2023-12-14T04:01:26;99337.06;;;3.02;100.00
8641;BME280;4358;42.100;25.222;2023-12-14T04:03:54;99342.31;;;3.02;100.00
8641;BME280;4358;42.100;25.222;2023-12-14T04:06:21;99336.47;;;3.14;100.00
8641;BME280;4358;42.100;25.222;2023-12-14T04:08:48;99353.91;;;3.15;100.00
8641;BME280;4358;42.100;25.222;2023-12-14T04:11:15;99350.81;;;3.07;100.00
8641;BME280;4358;42.100;25.222;2023-12-14T04:13:42;99347.28;;;3.08;100.00
8641;BME280;4358;42.100;25.222;2023-12-14T04:16:09;99338.41;;;3.11;100.00
8641;BME280;4358;42.100;25.222;2023-12-14T04:18:36;99328.97;;;3.07;100.00
8641;BME280;4358;42.100;25.222;2023-12-14T04:21:06;99340.03;;;3.13;100.00
8641;BME280;4358;42.100;25.222;2023-12-14T04:23:33;99338.34;;;3.12;100.00
8641;BME280;4358;42.100;25.222;2023-12-14T04:26:00;99317.63;;;3.06;100.00
8641;BME280;4358;42.100;25.222;2023-12-14T04:28:27;99321.97;;;3.07;100.00
8641;BME280;4358;42.100;25.222;2023-12-14T04:30:54;99327.81;;;2.93;100.00
8641;BME280;4358;42.100;25.222;2023-12-14T04:33:21;99326.06;;;2.94;100.00
8641;BME280;4358;42.100;25.222;2023-12-14T04:35:48;99334.16;;;3.08;100.00
8641;BME280;4358;42.100;25.222;2023-12-14T04:38:16;99342.03;;;3.08;100.00
8641;BME280;4358;42.100;25.222;2023-12-14T04:40:43;99340.31;;;3.07;100.00
8641;BME280;4358;42.100;25.222;2023-12-14T04:43:10;99341.88;;;3.11;100.00
8641;BME280;4358;42.100;25.222;2023-12-14T04:45:38;99333.66;;;3.00;100.00
8641;BME280;4358;42.100;25.222;2023-12-14T04:48:05;99341.22;;;3.06;100.00
8641;BME280;4358;42.100;25.222;2023-12-14T04:50:32;99348.78;;;2.93;100.00
8641;BME280;4358;42.100;25.222;2023-12-14T04:52:59;99336.31;;;2.80;100.00
8641;BME280;4358;42.100;25.222;2023-12-14T04:55:27;99334.00;;;2.72;100.00
8641;BME280;4358;42.100;25.222;2023-12-14T04:57:54;99336.72;;;2.71;100.00
8641;BME280;4358;42.100;25.222;2023-12-14T05:00:21;99336.09;;;2.45;100.00
8641;BME280;4358;42.100;25.222;2023-12-14T05:02:49;99332.53;;;2.46;100.00
8641;BME280;4358;42.100;25.222;2023-12-14T05:05:16;99334.25;;;2.47;100.00
8641;BME280;4358;42.100;25.222;2023-12-14T05:07:43;99338.97;;;2.39;100.00
8641;BME280;4358;42.100;25.222;2023-12-14T05:10:10;99331.38;;;2.33;100.00
8641;BME280;4358;42.100;25.222;2023-12-14T05:12:38;99323.66;;;2.50;100.00
8641;BME280;4358;42.100;25.222;2023-12-14T05:15:06;99326.06;;;2.55;100.00
8641;BME280;4358;42.100;25.222;2023-12-14T05:17:33;99333.72;;;2.60;100.00
8641;BME280;4358;42.100;25.222;2023-12-14T05:20:03;99326.66;;;2.62;100.00
8641;BME280;4358;42.100;25.222;2023-12-14T05:22:30;99330.19;;;2.61;100.00
8641;BME280;4358;42.100;25.222;2023-12-14T05:24:57;99324.81;;;2.64;100.00
8641;BME280;4358;42.100;25.222;2023-12-14T05:27:24;99315.88;;;2.68;100.00
8641;BME280;4358;42.100;25.222;2023-12-14T05:29:53;99320.56;;;2.61;100.00
8641;BME280;4358;42.100;25.222;2023-12-14T05:32:19;99311.47;;;2.49;100.00
8641;BME280;4358;42.100;25.222;2023-12-14T05:34:46;99318.25;;;2.53;100.00
8641;BME280;4358;42.100;25.222;2023-12-14T05:37:14;99315.00;;;2.48;100.00
8641;BME280;4358;42.100;25.222;2023-12-14T05:39:41;99324.22;;;2.57;100.00
8641;BME280;4358;42.100;25.222;2023-12-14T05:42:10;99322.31;;;2.61;100.00
8641;BME280;4358;42.100;25.222;2023-12-14T05:44:37;99313.41;;;2.65;100.00
8641;BME280;4358;42.100;25.222;2023-12-14T05:47:06;99311.44;;;2.70;100.00
8641;BME280;4358;42.100;25.222;2023-12-14T05:49:32;99321.84;;;2.71;100.00
8641;BME280;4358;42.100;25.222;2023-12-14T05:52:00;99319.28;;;2.70;100.00
8641;BME280;4358;42.100;25.222;2023-12-14T05:54:27;99310.94;;;2.62;100.00
8641;BME280;4358;42.100;25.222;2023-12-14T05:56:54;99328.81;;;2.52;100.00
8641;BME280;4358;42.100;25.222;2023-12-14T05:59:21;99323.09;;;2.42;100.00
8641;BME280;4358;42.100;25.222;2023-12-14T06:01:48;99334.66;;;2.38;100.00
8641;BME280;4358;42.100;25.222;2023-12-14T06:04:16;99345.13;;;2.38;100.00
8641;BME280;4358;42.100;25.222;2023-12-14T06:06:43;99353.28;;;2.31;100.00
8641;BME280;4358;42.100;25.222;2023-12-14T06:09:10;99356.09;;;2.26;100.00
8641;BME280;4358;42.100;25.222;2023-12-14T06:11:37;99358.44;;;2.12;100.00
8641;BME280;4358;42.100;25.222;2023-12-14T06:14:04;99355.69;;;2.15;100.00
8641;BME280;4358;42.100;25.222;2023-12-14T06:16:31;99357.34;;;2.18;100.00
8641;BME280;4358;42.100;25.222;2023-12-14T06:18:58;99353.22;;;2.32;100.00
8641;BME280;4358;42.100;25.222;2023-12-14T06:21:26;99349.97;;;2.47;100.00
8641;BME280;4358;42.100;25.222;2023-12-14T06:23:54;99360.44;;;2.47;100.00
8641;BME280;4358;42.100;25.222;2023-12-14T06:26:21;99371.44;;;2.55;100.00
8641;BME280;4358;42.100;25.222;2023-12-14T06:28:51;99382.69;;;2.58;100.00
8641;BME280;4358;42.100;25.222;2023-12-14T06:31:18;99362.28;;;2.45;100.00
8641;BME280;4358;42.100;25.222;2023-12-14T06:33:47;99371.25;;;2.60;100.00
8641;BME280;4358;42.100;25.222;2023-12-14T06:36:15;99380.88;;;2.60;100.00
8641;BME280;4358;42.100;25.222;2023-12-14T06:38:45;99371.44;;;2.55;100.00
8641;BME280;4358;42.100;25.222;2023-12-14T06:41:18;99372.41;;;2.53;100.00
8641;BME280;4358;42.100;25.222;2023-12-14T06:43:45;99382.69;;;2.58;100.00
8641;BME280;4358;42.100;25.222;2023-12-14T06:46:12;99379.97;;;2.61;100.00
8641;BME280;4358;42.100;25.222;2023-12-14T06:48:39;99368.00;;;2.74;100.00
8641;BME280;4358;42.100;25.222;2023-12-14T06:51:06;99375.34;;;2.86;100.00
8641;BME280;4358;42.100;25.222;2023-12-14T06:53:34;99371.56;;;2.93;100.00
8641;BME280;4358;42.100;25.222;2023-12-14T06:56:06;99376.59;;;2.97;100.00
8641;BME280;4358;42.100;25.222;2023-12-14T06:58:35;99395.41;;;2.87;100.00
8641;BME280;4358;42.100;25.222;2023-12-14T07:01:02;99381.34;;;2.88;100.00
8641;BME280;4358;42.100;25.222;2023-12-14T07:03:29;99380.56;;;3.06;100.00
8641;BME280;4358;42.100;25.222;2023-12-14T07:05:57;99380.28;;;3.12;100.00
8641;BME280;4358;42.100;25.222;2023-12-14T07:08:24;99393.78;;;3.23;100.00
8641;BME280;4358;42.100;25.222;2023-12-14T07:10:51;99392.19;;;3.19;100.00
8641;BME280;4358;42.100;25.222;2023-12-14T07:13:19;99400.72;;;3.24;100.00
8641;BME280;4358;42.100;25.222;2023-12-14T07:15:46;99392.47;;;3.13;100.00
8641;BME280;4358;42.100;25.222;2023-12-14T07:18:13;99403.25;;;3.07;100.00
8641;BME280;4358;42.100;25.222;2023-12-14T07:20:41;99386.66;;;3.25;100.00
8641;BME280;4358;42.100;25.222;2023-12-14T07:23:08;99385.00;;;3.24;100.00
8641;BME280;4358;42.100;25.222;2023-12-14T07:25:35;99375.03;;;3.31;100.00
8641;BME280;4358;42.100;25.222;2023-12-14T07:28:01;99372.66;;;3.45;100.00
8641;BME280;4358;42.100;25.222;2023-12-14T07:30:30;99370.34;;;3.56;100.00
8641;BME280;4358;42.100;25.222;2023-12-14T07:32:57;99354.75;;;3.72;100.00
8641;BME280;4358;42.100;25.222;2023-12-14T07:35:24;99362.72;;;3.88;100.00
8641;BME280;4358;42.100;25.222;2023-12-14T07:37:51;99362.66;;;3.89;100.00
8641;BME280;4358;42.100;25.222;2023-12-14T07:40:18;99360.66;;;3.94;100.00
8641;BME280;4358;42.100;25.222;2023-12-14T07:42:45;99356.53;;;4.07;100.00
8641;BME280;4358;42.100;25.222;2023-12-14T07:45:12;99373.22;;;4.06;100.00
8641;BME280;4358;42.100;25.222;2023-12-14T07:47:40;99365.69;;;3.99;100.00
8641;BME280;4358;42.100;25.222;2023-12-14T07:50:09;99372.06;;;4.12;100.00
8641;BME280;4358;42.100;25.222;2023-12-14T07:52:35;99379.88;;;4.13;100.00
8641;BME280;4358;42.100;25.222;2023-12-14T07:55:03;99379.94;;;4.12;100.00
8641;BME280;4358;42.100;25.222;2023-12-14T07:57:30;99378.91;;;4.14;100.00
8641;BME280;4358;42.100;25.222;2023-12-14T07:59:57;99377.25;;;4.13;100.00
8641;BME280;4358;42.100;25.222;2023-12-14T08:02:24;99372.63;;;4.18;100.00
8641;BME280;4358;42.100;25.222;2023-12-14T08:04:53;99375.34;;;4.34;100.00
8641;BME280;4358;42.100;25.222;2023-12-14T08:07:20;99382.19;;;4.37;100.00
8641;BME280;4358;42.100;25.222;2023-12-14T08:09:47;99387.69;;;4.32;100.00
8641;BME280;4358;42.100;25.222;2023-12-14T08:12:14;99373.53;;;4.17;100.00
8641;BME280;4358;42.100;25.222;2023-12-14T08:14:41;99380.34;;;4.21;100.00
8641;BME280;4358;42.100;25.222;2023-12-14T08:17:09;99385.41;;;4.24;100.00
8641;BME280;4358;42.100;25.222;2023-12-14T08:19:38;99372.91;;;4.30;100.00
8641;BME280;4358;42.100;25.222;2023-12-14T08:22:10;99383.41;;;4.30;100.00
8641;BME280;4358;42.100;25.222;2023-12-14T08:24:38;99380.25;;;4.40;100.00
8641;BME280;4358;42.100;25.222;2023-12-14T08:27:05;99372.31;;;4.42;100.00
8641;BME280;4358;42.100;25.222;2023-12-14T08:29:32;99396.19;;;4.54;100.00
8641;BME280;4358;42.100;25.222;2023-12-14T08:31:59;99394.44;;;4.55;100.00
8641;BME280;4358;42.100;25.222;2023-12-14T08:34:27;99388.84;;;4.61;100.00
8641;BME280;4358;42.100;25.222;2023-12-14T08:36:54;99394.69;;;4.66;100.00
8641;BME280;4358;42.100;25.222;2023-12-14T08:39:22;99401.53;;;4.70;100.00
8641;BME280;4358;42.100;25.222;2023-12-14T08:41:49;99392.94;;;4.66;100.00
8641;BME280;4358;42.100;25.222;2023-12-14T08:44:16;99409.09;;;4.76;100.00
8641;BME280;4358;42.100;25.222;2023-12-14T08:46:45;99398.41;;;4.79;100.00
8641;BME280;4358;42.100;25.222;2023-12-14T08:49:13;99398.88;;;4.87;100.00
8641;BME280;4358;42.100;25.222;2023-12-14T08:51:42;99393.41;;;4.92;100.00
8641;BME280;4358;42.100;25.222;2023-12-14T08:54:09;99383.81;;;4.91;100.00
8641;BME280;4358;42.100;25.222;2023-12-14T08:56:37;99376.81;;;5.07;100.00
8641;BME280;4358;42.100;25.222;2023-12-14T08:59:04;99379.44;;;5.07;100.00
8641;BME280;4358;42.100;25.222;2023-12-14T09:01:31;99377.91;;;5.19;100.00
8641;BME280;4358;42.100;25.222;2023-12-14T09:03:58;99371.44;;;5.08;100.00
8641;BME280;4358;42.100;25.222;2023-12-14T09:06:25;99387.19;;;5.26;100.00
8641;BME280;4358;42.100;25.222;2023-12-14T09:08:52;99387.13;;;5.27;100.00
8641;BME280;4358;42.100;25.222;2023-12-14T09:11:19;99377.00;;;5.35;100.00
8641;BME280;4358;42.100;25.222;2023-12-14T09:13:48;99377.47;;;5.59;100.00
8641;BME280;4358;42.100;25.222;2023-12-14T09:16:16;99379.41;;;5.55;100.00
8641;BME280;4358;42.100;25.222;2023-12-14T09:18:43;99371.09;;;5.63;100.00
8641;BME280;4358;42.100;25.222;2023-12-14T09:21:10;99369.59;;;5.75;100.00
8641;BME280;4358;42.100;25.222;2023-12-14T09:23:37;99377.81;;;5.84;100.00
8641;BME280;4358;42.100;25.222;2023-12-14T09:26:06;99360.75;;;5.91;100.00
8641;BME280;4358;42.100;25.222;2023-12-14T09:28:34;99364.94;;;5.95;100.00
8641;BME280;4358;42.100;25.222;2023-12-14T09:31:03;99351.41;;;6.02;100.00
8641;BME280;4358;42.100;25.222;2023-12-14T09:33:30;99347.97;;;6.15;100.00
8641;BME280;4358;42.100;25.222;2023-12-14T09:35:57;99336.91;;;6.24;100.00
8641;BME280;4358;42.100;25.222;2023-12-14T09:38:23;99347.94;;;6.31;100.00
8641;BME280;4358;42.100;25.222;2023-12-14T09:40:50;99342.47;;;6.34;100.00
8641;BME280;4358;42.100;25.222;2023-12-14T09:43:17;99344.31;;;6.48;100.00
8641;BME280;4358;42.100;25.222;2023-12-14T09:45:46;99331.72;;;6.53;100.00
8641;BME280;4358;42.100;25.222;2023-12-14T09:48:16;99317.41;;;6.57;100.00
8641;BME280;4358;42.100;25.222;2023-12-14T09:50:43;99319.41;;;6.67;100.00
8641;BME280;4358;42.100;25.222;2023-12-14T09:53:11;99325.34;;;6.85;100.00
8641;BME280;4358;42.100;25.222;2023-12-14T09:55:37;99327.44;;;6.94;100.00
8641;BME280;4358;42.100;25.222;2023-12-14T09:58:04;99327.91;;;7.01;100.00
8641;BME280;4358;42.100;25.222;2023-12-14T10:00:37;99329.22;;;7.08;100.00
8641;BME280;4358;42.100;25.222;2023-12-14T10:03:25;99326.03;;;7.17;100.00
8641;BME280;4358;42.100;25.222;2023-12-14T10:05:54;99329.09;;;7.23;100.00
8641;BME280;4358;42.100;25.222;2023-12-14T10:08:21;99309.97;;;7.34;100.00
8641;BME280;4358;42.100;25.222;2023-12-14T10:10:50;99311.06;;;7.44;100.00
8641;BME280;4358;42.100;25.222;2023-12-14T10:13:18;99299.81;;;7.55;100.00
8641;BME280;4358;42.100;25.222;2023-12-14T10:15:47;99298.78;;;7.57;100.00
8641;BME280;4358;42.100;25.222;2023-12-14T10:18:21;99304.63;;;7.62;100.00
8641;BME280;4358;42.100;25.222;2023-12-14T10:20:51;99298.19;;;7.66;100.00
8641;BME280;4358;42.100;25.222;2023-12-14T10:23:18;99297.16;;;7.69;100.00
8641;BME280;4358;42.100;25.222;2023-12-14T10:25:46;99292.84;;;7.81;100.00
8641;BME280;4358;42.100;25.222;2023-12-14T10:28:13;99280.66;;;7.92;100.00
8641;BME280;4358;42.100;25.222;2023-12-14T10:30:40;99275.13;;;7.83;100.00
8641;BME280;4358;42.100;25.222;2023-12-14T10:33:08;99273.47;;;7.94;100.00
8641;BME280;4358;42.100;25.222;2023-12-14T10:35:35;99282.34;;;7.93;100.00
8641;BME280;4358;42.100;25.222;2023-12-14T10:38:04;99264.16;;;8.01;100.00
8641;BME280;4358;42.100;25.222;2023-12-14T10:40:32;99273.31;;;8.10;100.00
8641;BME280;4358;42.100;25.222;2023-12-14T10:42:59;99259.47;;;8.19;100.00
8641;BME280;4358;42.100;25.222;2023-12-14T10:45:32;99262.81;;;8.35;100.00
8641;BME280;4358;42.100;25.222;2023-12-14T10:48:00;99255.41;;;8.40;100.00
8641;BME280;4358;42.100;25.222;2023-12-14T10:50:29;99252.13;;;8.49;100.00
8641;BME280;4358;42.100;25.222;2023-12-14T10:52:57;99251.28;;;8.62;100.00
8641;BME280;4358;42.100;25.222;2023-12-14T10:55:29;99257.19;;;8.78;100.00
8641;BME280;4358;42.100;25.222;2023-12-14T10:57:58;99259.63;;;8.81;100.00
8641;BME280;4358;42.100;25.222;2023-12-14T11:00:26;99254.13;;;8.84;100.00
8641;BME280;4358;42.100;25.222;2023-12-14T11:02:54;99252.97;;;8.88;100.00
8641;BME280;4358;42.100;25.222;2023-12-14T11:05:23;99243.31;;;9.00;100.00
8641;BME280;4358;42.100;25.222;2023-12-14T11:07:56;99244.78;;;8.91;100.00
8641;BME280;4358;42.100;25.222;2023-12-14T11:10:28;99246.72;;;8.89;100.00
8641;BME280;4358;42.100;25.222;2023-12-14T11:13:03;99239.72;;;8.88;100.00
8641;BME280;4358;42.100;25.222;2023-12-14T11:15:33;99238.78;;;8.89;100.00
8641;BME280;4358;42.100;25.222;2023-12-14T11:18:22;99245.75;;;8.90;100.00
8641;BME280;4358;42.100;25.222;2023-12-14T11:20:51;99244.16;;;8.87;100.00
8641;BME280;4358;42.100;25.222;2023-12-14T11:23:28;99255.81;;;8.72;100.00
8641;BME280;4358;42.100;25.222;2023-12-14T11:25:59;99249.16;;;8.67;100.00
8641;BME280;4358;42.100;25.222;2023-12-14T11:28:29;99258.38;;;8.74;100.00
8641;BME280;4358;42.100;25.222;2023-12-14T11:30:56;99260.28;;;8.72;100.00
8641;BME280;4358;42.100;25.222;2023-12-14T11:33:23;99251.72;;;8.68;100.00
8641;BME280;4358;42.100;25.222;2023-12-14T11:35:52;99242.50;;;8.74;100.00
8641;BME280;4358;42.100;25.222;2023-12-14T11:38:20;99239.09;;;8.72;100.00
8641;BME280;4358;42.100;25.222;2023-12-14T11:40:49;99249.25;;;8.78;100.00
8641;BME280;4358;42.100;25.222;2023-12-14T11:43:18;99241.44;;;8.76;100.00
8641;BME280;4358;42.100;25.222;2023-12-14T11:45:45;99232.13;;;8.83;100.00
8641;BME280;4358;42.100;25.222;2023-12-14T11:48:13;99228.91;;;8.91;100.00
8641;BME280;4358;42.100;25.222;2023-12-14T11:50:41;99228.81;;;8.92;100.00
8641;BME280;4358;42.100;25.222;2023-12-14T11:53:10;99228.47;;;8.97;100.00
8641;BME280;4358;42.100;25.222;2023-12-14T11:55:38;99233.34;;;8.90;100.00
8641;BME280;4358;42.100;25.222;2023-12-14T11:58:06;99225.09;;;8.95;100.00
8641;BME280;4358;42.100;25.222;2023-12-14T12:00:35;99223.00;;;9.00;100.00
8641;BME280;4358;42.100;25.222;2023-12-14T12:03:09;99219.34;;;9.14;100.00
8641;BME280;4358;42.100;25.222;2023-12-14T12:05:38;99223.56;;;9.16;100.00
8641;BME280;4358;42.100;25.222;2023-12-14T12:08:05;99225.25;;;9.17;100.00
8641;BME280;4358;42.100;25.222;2023-12-14T12:10:33;99239.34;;;9.18;100.00
8641;BME280;4358;42.100;25.222;2023-12-14T12:13:06;99226.94;;;9.18;100.00
8641;BME280;4358;42.100;25.222;2023-12-14T12:15:34;99224.22;;;9.20;100.00
8641;BME280;4358;42.100;25.222;2023-12-14T12:18:05;99224.41;;;9.17;100.00
8641;BME280;4358;42.100;25.222;2023-12-14T12:20:32;99228.66;;;9.19;100.00
8641;BME280;4358;42.100;25.222;2023-12-14T12:23:00;99242.22;;;9.15;100.00
8641;BME280;4358;42.100;25.222;2023-12-14T12:25:28;99238.22;;;9.09;100.00
8641;BME280;4358;42.100;25.222;2023-12-14T12:27:55;99232.50;;;9.03;100.00
8641;BME280;4358;42.100;25.222;2023-12-14T12:30:22;99227.31;;;9.01;100.00
8641;BME280;4358;42.100;25.222;2023-12-14T12:32:50;99228.34;;;9.11;100.00
8641;BME280;4358;42.100;25.222;2023-12-14T12:35:18;99232.41;;;9.04;100.00
8641;BME280;4358;42.100;25.222;2023-12-14T12:37:45;99230.09;;;9.00;100.00
8641;BME280;4358;42.100;25.222;2023-12-14T12:40:12;99209.25;;;8.82;100.00
8641;BME280;4358;42.100;25.222;2023-12-14T12:42:41;99237.38;;;8.96;100.00
8641;BME280;4358;42.100;25.222;2023-12-14T12:45:09;99237.78;;;9.03;100.00
8641;BME280;4358;42.100;25.222;2023-12-14T12:47:37;99237.88;;;9.01;100.00
8641;BME280;4358;42.100;25.222;2023-12-14T12:50:07;99252.09;;;9.00;100.00
8641;BME280;4358;42.100;25.222;2023-12-14T12:52:34;99250.41;;;8.99;100.00
8641;BME280;4358;42.100;25.222;2023-12-14T12:55:01;99245.84;;;9.01;100.00
8641;BME280;4358;42.100;25.222;2023-12-14T12:57:28;99249.00;;;9.06;100.00
8641;BME280;4358;42.100;25.222;2023-12-14T12:59:55;99254.09;;;9.09;100.00
8641;BME280;4358;42.100;25.222;2023-12-14T13:02:22;99255.66;;;9.12;100.00
8641;BME280;4358;42.100;25.222;2023-12-14T13:04:49;99257.44;;;9.11;100.00
8641;BME280;4358;42.100;25.222;2023-12-14T13:07:18;99271.34;;;9.15;100.00
8641;BME280;4358;42.100;25.222;2023-12-14T13:09:45;99275.44;;;9.19;100.00
8641;BME280;4358;42.100;25.222;2023-12-14T13:12:12;99271.22;;;9.16;100.00
8641;BME280;4358;42.100;25.222;2023-12-14T13:14:40;99265.72;;;9.19;100.00
8641;BME280;4358;42.100;25.222;2023-12-14T13:17:07;99282.44;;;9.20;100.00